createdAt,value
2022-08-23T00:02:22.920Z,100036.34
2022-08-23T00:05:07.932Z,100038.72
2022-08-23T00:07:39.473Z,100048.19
2022-08-23T00:10:10.041Z,100043.56
2022-08-23T00:12:37.874Z,100041.72
2022-08-23T00:15:09.684Z,100037.03
2022-08-23T00:17:37.038Z,100034.22
2022-08-23T00:20:11.783Z,100026.28
2022-08-23T00:22:40.042Z,100027.69
2022-08-23T00:25:10.439Z,100027.75
2022-08-23T00:27:38.250Z,100023.91
2022-08-23T00:30:10.846Z,100023.69
2022-08-23T00:32:39.745Z,100023.91
2022-08-23T00:35:09.466Z,100024.97
2022-08-23T00:37:38.035Z,100027.00
2022-08-23T00:40:09.181Z,100029.19
2022-08-23T00:43:09.559Z,100032.03
2022-08-23T00:46:02.839Z,100044.19
2022-08-23T00:48:30.714Z,100056.25
2022-08-23T00:51:18.246Z,100059.44
2022-08-23T00:53:53.940Z,100049.28
2022-08-23T00:56:24.805Z,100048.72
2022-08-23T00:58:53.594Z,100050.78
2022-08-23T01:01:20.694Z,100047.78
2022-08-23T01:04:04.494Z,100054.47
2022-08-23T01:06:44.811Z,100055.88
2022-08-23T01:09:17.796Z,100049.47
2022-08-23T01:12:33.095Z,100051.69
2022-08-23T01:15:20.280Z,100050.22
2022-08-23T01:18:02.635Z,100056.94
2022-08-23T01:20:39.108Z,100051.69
2022-08-23T01:23:38.141Z,100055.94
2022-08-23T01:26:06.519Z,100048.81
2022-08-23T01:28:34.375Z,100049.31
2022-08-23T01:31:02.579Z,100052.31
2022-08-23T01:33:35.190Z,100052.53
2022-08-23T01:36:04.305Z,100055.25
2022-08-23T01:38:37.795Z,100063.69
2022-08-23T01:41:06.878Z,100064.44
2022-08-23T01:43:34.179Z,100061.50
2022-08-23T01:46:11.089Z,100049.81
2022-08-23T01:48:38.508Z,100054.97
2022-08-23T01:51:06.056Z,100061.69
2022-08-23T01:53:33.908Z,100057.16
2022-08-23T01:56:03.764Z,100057.00
2022-08-23T01:58:33.178Z,100057.53
2022-08-23T02:01:02.009Z,100055.22
2022-08-23T02:03:29.275Z,100049.84
2022-08-23T02:05:57.717Z,100055.44
2022-08-23T02:08:43.896Z,100062.97
2022-08-23T02:11:15.663Z,100074.50
2022-08-23T02:13:44.197Z,100071.28
2022-08-23T02:16:14.822Z,100069.03
2022-08-23T02:18:44.085Z,100074.59
2022-08-23T02:21:11.002Z,100067.03
2022-08-23T02:23:37.908Z,100072.97
2022-08-23T02:26:07.079Z,100072.38
2022-08-23T02:28:34.076Z,100069.75
2022-08-23T02:31:01.207Z,100077.59
2022-08-23T02:33:29.578Z,100076.09
2022-08-23T02:35:56.641Z,100082.09
2022-08-23T02:38:23.790Z,100072.78
2022-08-23T02:40:53.052Z,100076.22
2022-08-23T02:43:28.070Z,100078.53
2022-08-23T02:45:55.099Z,100083.69
2022-08-23T02:48:22.498Z,100085.81
2022-08-23T02:50:49.928Z,100089.78
2022-08-23T02:53:17.763Z,100103.19
2022-08-23T02:55:48.262Z,100092.72
2022-08-23T02:58:15.226Z,100097.16
2022-08-23T03:00:47.080Z,100092.69
2022-08-23T03:03:17.700Z,100092.72
2022-08-23T03:05:45.504Z,100096.88
2022-08-23T03:08:13.096Z,100095.47
2022-08-23T03:10:45.600Z,100106.81
2022-08-23T03:13:12.531Z,100101.91
2022-08-23T03:15:40.948Z,100109.72
2022-08-23T03:18:09.206Z,100100.22
2022-08-23T03:20:36.407Z,100103.16
2022-08-23T03:23:03.718Z,100101.56
2022-08-23T03:25:30.839Z,100103.84
2022-08-23T03:27:58.185Z,100124.47
2022-08-23T03:30:25.261Z,100123.03
2022-08-23T03:32:52.297Z,100119.72
2022-08-23T03:35:19.387Z,100113.31
2022-08-23T03:37:46.477Z,100113.16
2022-08-23T03:40:14.029Z,100115.56
2022-08-23T03:42:41.039Z,100125.56
2022-08-23T03:45:08.449Z,100128.09
2022-08-23T03:47:35.687Z,100128.22
2022-08-23T03:50:02.613Z,100124.66
2022-08-23T03:52:30.094Z,100124.03
2022-08-23T03:54:57.412Z,100136.44
2022-08-23T03:57:24.396Z,100150.19
2022-08-23T03:59:51.426Z,100146.84
2022-08-23T04:02:18.517Z,100143.78
2022-08-23T04:04:45.544Z,100139.97
2022-08-23T04:07:12.594Z,100131.00
2022-08-23T04:09:39.522Z,100143.03
2022-08-23T04:12:17.593Z,100140.53
2022-08-23T04:14:45.731Z,100143.41
2022-08-23T04:17:16.558Z,100153.84
2022-08-23T04:19:43.861Z,100160.84
2022-08-23T04:22:14.989Z,100163.94
2022-08-23T04:24:42.848Z,100154.22
2022-08-23T04:27:10.514Z,100155.09
2022-08-23T04:29:39.973Z,100147.28
2022-08-23T04:32:11.544Z,100162.06
2022-08-23T04:34:45.790Z,100165.03
2022-08-23T04:37:18.667Z,100169.22
2022-08-23T04:40:04.500Z,100161.66
2022-08-23T04:42:31.652Z,100163.38
2022-08-23T04:44:58.712Z,100160.50
2022-08-23T04:47:25.669Z,100159.94
2022-08-23T04:49:52.615Z,100175.75
2022-08-23T04:52:20.794Z,100181.09
2022-08-23T04:54:47.854Z,100188.06
2022-08-23T04:57:15.507Z,100192.25
2022-08-23T04:59:43.912Z,100189.06
2022-08-23T05:02:10.858Z,100196.22
2022-08-23T05:04:37.797Z,100195.94
2022-08-23T05:07:04.902Z,100204.91
2022-08-23T05:09:32.010Z,100200.13
2022-08-23T05:11:58.979Z,100203.19
2022-08-23T05:14:26.147Z,100203.09
2022-08-23T05:16:53.120Z,100200.25
2022-08-23T05:19:20.460Z,100202.91
2022-08-23T05:21:47.573Z,100210.13
2022-08-23T05:24:14.768Z,100213.44
2022-08-23T05:26:41.999Z,100219.34
2022-08-23T05:29:09.335Z,100210.75
2022-08-23T05:31:36.292Z,100223.06
2022-08-23T05:34:03.769Z,100234.91
2022-08-23T05:36:31.231Z,100222.75
2022-08-23T05:38:58.587Z,100225.31
2022-08-23T05:41:33.382Z,100225.63
2022-08-23T05:44:05.119Z,100228.13
2022-08-23T05:46:32.651Z,100239.06
2022-08-23T05:48:59.668Z,100237.31
2022-08-23T05:51:30.573Z,100237.56
2022-08-23T05:54:04.950Z,100238.19
2022-08-23T05:56:39.404Z,100242.09
2022-08-23T05:59:12.702Z,100244.59
2022-08-23T06:01:41.378Z,100242.69
2022-08-23T06:04:12.581Z,100249.38
2022-08-23T06:06:42.093Z,100257.34
2022-08-23T06:09:13.225Z,100254.94
2022-08-23T06:11:46.023Z,100252.53
2022-08-23T06:14:13.433Z,100250.09
2022-08-23T06:16:44.363Z,100251.53
2022-08-23T06:19:12.012Z,100249.34
2022-08-23T06:21:40.022Z,100243.06
2022-08-23T06:24:07.316Z,100247.31
2022-08-23T06:26:39.304Z,100248.88
2022-08-23T06:29:12.206Z,100245.88
2022-08-23T06:31:45.507Z,100245.41
2022-08-23T06:34:25.418Z,100239.53
2022-08-23T06:36:56.533Z,100237.03
2022-08-23T06:39:28.431Z,100249.88
2022-08-23T06:42:22.265Z,100249.47
2022-08-23T06:44:53.870Z,100253.88
2022-08-23T06:47:23.166Z,100246.56
2022-08-23T06:49:57.917Z,100250.06
2022-08-23T06:52:27.512Z,100243.94
2022-08-23T06:54:55.059Z,100245.81
2022-08-23T06:57:22.338Z,100239.63
2022-08-23T06:59:50.122Z,100241.59
2022-08-23T07:02:17.413Z,100234.59
2022-08-23T07:04:44.870Z,100236.50
2022-08-23T07:07:12.571Z,100237.91
2022-08-23T07:09:40.699Z,100241.28
2022-08-23T07:12:08.116Z,100240.94
2022-08-23T07:14:36.994Z,100229.25
2022-08-23T07:17:04.777Z,100230.34
2022-08-23T07:19:34.512Z,100240.25
2022-08-23T07:22:03.446Z,100238.59
2022-08-23T07:24:33.491Z,100230.28
2022-08-23T07:27:07.241Z,100232.25
2022-08-23T07:29:37.423Z,100230.25
2022-08-23T07:32:05.107Z,100232.53
2022-08-23T07:34:32.609Z,100232.91
2022-08-23T07:37:01.196Z,100227.13
2022-08-23T07:39:29.600Z,100227.13
2022-08-23T07:42:00.525Z,100229.34
2022-08-23T07:44:28.176Z,100219.53
2022-08-23T07:46:55.402Z,100225.75
2022-08-23T07:49:23.055Z,100218.16
2022-08-23T07:51:58.759Z,100222.06
2022-08-23T07:54:27.904Z,100226.72
2022-08-23T07:56:55.281Z,100217.84
2022-08-23T07:59:22.282Z,100225.81
2022-08-23T08:01:49.456Z,100219.22
2022-08-23T08:04:16.577Z,100225.72
2022-08-23T08:06:59.882Z,100235.50
2022-08-23T08:09:27.135Z,100230.19
2022-08-23T08:11:54.320Z,100231.47
2022-08-23T08:14:21.414Z,100223.91
2022-08-23T08:16:50.862Z,100221.31
2022-08-23T08:19:19.805Z,100233.28
2022-08-23T08:21:48.557Z,100225.72
2022-08-23T08:24:18.149Z,100233.78
2022-08-23T08:26:46.141Z,100227.66
2022-08-23T08:29:14.334Z,100230.34
2022-08-23T08:31:44.176Z,100233.50
2022-08-23T08:34:12.412Z,100231.81
2022-08-23T08:36:50.338Z,100231.63
2022-08-23T08:39:25.131Z,100227.03
2022-08-23T08:42:27.639Z,100228.16
2022-08-23T08:45:01.292Z,100233.09
2022-08-23T08:47:54.535Z,100230.97
2022-08-23T08:50:27.938Z,100229.78
2022-08-23T08:53:02.387Z,100226.59
2022-08-23T08:55:38.750Z,100225.38
2022-08-23T08:58:07.318Z,100225.91
2022-08-23T09:00:38.755Z,100216.63
2022-08-23T09:03:14.372Z,100222.13
2022-08-23T09:05:59.990Z,100218.34
2022-08-23T09:08:48.498Z,100219.78
2022-08-23T09:11:40.313Z,100218.38
2022-08-23T09:14:30.428Z,100213.84
2022-08-23T09:17:05.919Z,100219.00
2022-08-23T09:19:37.487Z,100216.22
2022-08-23T09:22:13.409Z,100209.72
2022-08-23T09:24:41.480Z,100205.34
2022-08-23T09:27:10.595Z,100197.47
2022-08-23T09:29:41.791Z,100194.53
2022-08-23T09:32:33.828Z,100200.41
2022-08-23T09:35:24.239Z,100198.31
2022-08-23T09:38:02.249Z,100192.66
2022-08-23T09:40:41.547Z,100198.56
2022-08-23T09:43:16.127Z,100184.97
2022-08-23T09:46:01.090Z,100187.41
2022-08-23T09:48:39.942Z,100186.03
2022-08-23T09:51:31.263Z,100179.88
2022-08-23T09:54:12.909Z,100179.59
2022-08-23T09:56:46.942Z,100187.91
2022-08-23T09:59:22.277Z,100179.81
2022-08-23T10:02:00.308Z,100185.38
2022-08-23T10:04:47.304Z,100178.88
2022-08-23T10:07:34.934Z,100184.78
2022-08-23T10:10:35.839Z,100183.47
2022-08-23T10:13:05.387Z,100170.88
2022-08-23T10:15:58.761Z,100173.81
2022-08-23T10:19:00.755Z,100168.97
2022-08-23T10:22:16.814Z,100163.78
2022-08-23T10:25:02.665Z,100149.69
2022-08-23T10:28:14.308Z,100158.31
2022-08-23T10:31:23.141Z,100156.38
2022-08-23T10:34:24.327Z,100155.53
2022-08-23T10:37:12.404Z,100158.63
2022-08-23T10:40:30.425Z,100149.88
2022-08-23T10:43:35.097Z,100163.66
2022-08-23T10:46:03.014Z,100158.28
2022-08-23T10:48:37.021Z,100155.88
2022-08-23T10:51:33.412Z,100152.25
2022-08-23T10:54:35.907Z,100153.16
2022-08-23T10:57:04.883Z,100148.03
2022-08-23T10:59:32.800Z,100149.19
2022-08-23T11:02:25.769Z,100138.47
2022-08-23T11:05:02.748Z,100135.88
2022-08-23T11:07:37.446Z,100137.53
2022-08-23T11:10:17.621Z,100122.59
2022-08-23T11:13:08.514Z,100121.81
2022-08-23T11:15:58.495Z,100130.81
2022-08-23T11:18:41.978Z,100125.25
2022-08-23T11:21:18.133Z,100122.06
2022-08-23T11:23:54.293Z,100114.28
2022-08-23T11:26:27.518Z,100106.91
2022-08-23T11:29:21.315Z,100124.84
2022-08-23T11:32:32.818Z,100119.16
2022-08-23T11:35:27.444Z,100122.25
2022-08-23T11:38:05.398Z,100116.78
2022-08-23T11:40:50.854Z,100113.88
2022-08-23T11:43:39.619Z,100109.16
2022-08-23T11:46:28.413Z,100111.53
2022-08-23T11:49:26.112Z,100117.00
2022-08-23T11:52:16.434Z,100106.75
2022-08-23T11:55:19.834Z,100098.28
2022-08-23T11:58:21.034Z,100097.09
2022-08-23T12:01:11.476Z,100088.41
2022-08-23T12:04:10.493Z,100090.09
2022-08-23T12:06:51.254Z,100083.81
2022-08-23T12:09:24.329Z,100083.28
2022-08-23T12:11:57.278Z,100072.03
2022-08-23T12:14:42.831Z,100072.84
2022-08-23T12:17:16.945Z,100073.84
2022-08-23T12:19:56.380Z,100067.25
2022-08-23T12:22:29.963Z,100067.50
2022-08-23T12:25:08.383Z,100070.19
2022-08-23T12:27:52.759Z,100064.41
2022-08-23T12:30:31.812Z,100063.13
2022-08-23T12:33:42.019Z,100065.34
2022-08-23T12:36:46.180Z,100062.34
2022-08-23T12:39:34.852Z,100065.16
2022-08-23T12:42:15.850Z,100062.47
2022-08-23T12:45:02.784Z,100058.53
2022-08-23T12:47:29.950Z,100057.75
2022-08-23T12:50:15.130Z,100064.19
2022-08-23T12:52:42.599Z,100058.84
2022-08-23T12:55:18.612Z,100062.72
2022-08-23T12:57:56.476Z,100051.56
2022-08-23T13:00:25.710Z,100055.03
2022-08-23T13:03:06.073Z,100056.25
2022-08-23T13:06:02.065Z,100045.78
2022-08-23T13:08:52.691Z,100044.84
2022-08-23T13:11:23.455Z,100041.69
2022-08-23T13:13:50.475Z,100042.94
2022-08-23T13:16:47.266Z,100044.81
2022-08-23T13:19:24.071Z,100041.53
2022-08-23T13:22:32.066Z,100039.16
2022-08-23T13:25:28.009Z,100036.44
2022-08-23T13:28:19.283Z,100031.75
2022-08-23T13:31:05.562Z,100037.25
2022-08-23T13:33:32.761Z,100042.91
2022-08-23T13:36:13.675Z,100035.72
2022-08-23T13:38:43.439Z,100029.94
2022-08-23T13:41:27.414Z,100023.34
2022-08-23T13:43:55.007Z,100030.56
2022-08-23T13:46:29.356Z,100027.59
2022-08-23T13:49:06.016Z,100025.56
2022-08-23T13:51:39.381Z,100024.56
2022-08-23T13:54:13.532Z,100028.56
2022-08-23T13:56:55.635Z,100033.53
2022-08-23T13:59:36.508Z,100020.34
2022-08-23T14:02:14.265Z,100024.56
2022-08-23T14:04:42.776Z,100021.56
2022-08-23T14:07:10.872Z,100022.53
2022-08-23T14:09:39.439Z,100029.44
2022-08-23T14:12:13.483Z,100024.50
2022-08-23T14:14:41.249Z,100032.28
2022-08-23T14:17:10.663Z,100021.78
2022-08-23T14:20:51.400Z,100025.75
2022-08-23T14:22:27.691Z,100030.41
2022-08-23T14:24:54.739Z,100016.47
2022-08-23T14:27:21.780Z,100020.56
2022-08-23T14:29:48.771Z,100013.50
2022-08-23T14:32:15.759Z,100010.97
2022-08-23T14:34:42.798Z,100010.91
2022-08-23T14:39:56.963Z,100004.81
2022-08-23T14:42:24.387Z,100016.31
2022-08-23T14:44:51.456Z,100013.38
2022-08-23T14:47:19.079Z,100003.94
2022-08-23T14:49:46.173Z,100010.81
2022-08-23T14:52:15.056Z,100003.66
2022-08-23T14:54:42.295Z,100001.00
2022-08-23T14:57:09.427Z,100002.09
2022-08-23T14:59:36.547Z,100000.59
2022-08-23T15:02:05.123Z,100002.59
2022-08-23T15:04:34.443Z,100001.28
2022-08-23T15:07:19.590Z,100005.91
2022-08-23T15:09:49.842Z,100007.09
2022-08-23T15:15:12.690Z,100000.59
2022-08-23T15:17:52.368Z,99996.78
2022-08-23T15:20:22.997Z,100000.81
2022-08-23T15:23:05.362Z,99992.72
2022-08-23T15:25:35.875Z,99993.19
2022-08-23T15:28:08.514Z,99990.97
2022-08-23T15:30:37.857Z,99993.31
2022-08-23T15:33:07.037Z,99989.72
2022-08-23T15:35:44.018Z,99996.19
2022-08-23T15:38:14.507Z,99981.44
2022-08-23T15:40:42.022Z,99988.00
2022-08-23T15:43:09.146Z,99983.63
2022-08-23T15:45:37.400Z,99979.03
2022-08-23T15:48:16.441Z,99980.63
2022-08-23T15:50:46.690Z,99980.34
2022-08-23T15:53:15.407Z,99983.81
2022-08-23T15:55:43.607Z,99991.28
2022-08-23T15:58:31.902Z,99989.19
2022-08-23T16:00:58.838Z,99996.69
2022-08-23T16:03:25.970Z,99990.69
2022-08-23T16:05:54.168Z,99987.41
2022-08-23T16:08:27.423Z,99985.56
2022-08-23T16:10:55.562Z,99987.28
2022-08-23T16:13:24.932Z,99985.13
2022-08-23T16:15:52.801Z,99983.09
2022-08-23T16:18:19.948Z,99984.19
2022-08-23T16:20:46.952Z,99982.19
2022-08-23T16:23:13.976Z,99983.09
2022-08-23T16:25:41.713Z,99979.91
2022-08-23T16:28:08.899Z,99985.28
2022-08-23T16:30:36.388Z,99980.38
2022-08-23T16:33:04.144Z,99991.50
2022-08-23T16:35:31.287Z,99986.97
2022-08-23T16:37:58.372Z,99981.22
2022-08-23T16:40:25.548Z,99981.03
2022-08-23T16:42:52.812Z,99990.59
2022-08-23T16:45:26.112Z,99982.50
2022-08-23T16:47:53.672Z,99988.81
2022-08-23T16:50:20.860Z,99984.28
2022-08-23T16:52:47.765Z,99986.69
2022-08-23T16:55:14.716Z,99990.63
2022-08-23T16:57:42.119Z,100000.03
2022-08-23T17:00:13.087Z,99996.25
2022-08-23T17:02:40.957Z,100005.22
2022-08-23T17:05:13.725Z,100001.84
2022-08-23T17:07:40.676Z,100004.09
2022-08-23T17:10:10.315Z,100005.47
2022-08-23T17:12:41.551Z,100002.50
2022-08-23T17:15:20.684Z,100008.25
2022-08-23T17:17:48.530Z,100004.75
2022-08-23T17:20:16.617Z,100008.91
2022-08-23T17:22:43.581Z,100010.03
2022-08-23T17:25:11.861Z,100007.53
2022-08-23T17:27:45.469Z,100011.59
2022-08-23T17:30:16.845Z,100022.31
2022-08-23T17:32:47.684Z,100025.69
2022-08-23T17:35:18.856Z,100024.50
2022-08-23T17:37:50.900Z,100028.78
2022-08-23T17:40:28.938Z,100015.59
2022-08-23T17:42:57.136Z,100036.13
2022-08-23T17:45:24.393Z,100039.44
2022-08-23T17:47:51.399Z,100044.13
2022-08-23T17:50:20.155Z,100053.56
2022-08-23T17:52:47.132Z,100058.69
2022-08-23T17:55:17.312Z,100068.09
2022-08-23T17:57:47.256Z,100067.06
2022-08-23T18:00:18.073Z,100071.69
2022-08-23T18:02:45.119Z,100069.25
2022-08-23T18:05:12.460Z,100066.59
2022-08-23T18:07:40.027Z,100064.97
2022-08-23T18:10:08.898Z,100062.28
2022-08-23T18:12:36.003Z,100057.97
2022-08-23T18:15:04.063Z,100063.22
2022-08-23T18:17:32.629Z,100062.63
2022-08-23T18:20:00.379Z,100068.34
2022-08-23T18:22:27.826Z,100079.38
2022-08-23T18:24:54.858Z,100072.44
2022-08-23T18:27:40.534Z,100080.88
2022-08-23T18:30:09.940Z,100079.81
2022-08-23T18:32:37.286Z,100083.25
2022-08-23T18:35:05.616Z,100087.41
2022-08-23T18:37:32.626Z,100102.38
2022-08-23T18:39:59.693Z,100110.22
2022-08-23T18:42:26.937Z,100114.03
2022-08-23T18:44:54.153Z,100133.25
2022-08-23T18:47:21.308Z,100133.22
2022-08-23T18:49:48.664Z,100134.84
2022-08-23T18:52:15.964Z,100137.06
2022-08-23T18:54:43.063Z,100143.38
2022-08-23T18:57:15.989Z,100151.81
2022-08-23T18:59:44.339Z,100151.88
2022-08-23T19:02:11.552Z,100153.69
2022-08-23T19:04:39.065Z,100162.56
2022-08-23T19:07:06.013Z,100156.81
2022-08-23T19:09:33.117Z,100164.22
2022-08-23T19:12:00.907Z,100155.63
2022-08-23T19:14:28.600Z,100157.97
2022-08-23T19:16:55.837Z,100162.81
2022-08-23T19:19:23.777Z,100163.63
2022-08-23T19:21:50.890Z,100168.16
2022-08-23T19:24:17.923Z,100174.06
2022-08-23T19:26:47.468Z,100174.69
2022-08-23T19:29:16.115Z,100177.16
2022-08-23T19:31:46.642Z,100180.78
2022-08-23T19:34:16.747Z,100188.44
2022-08-23T19:36:48.094Z,100183.25
2022-08-23T19:39:18.618Z,100181.97
2022-08-23T19:41:47.235Z,100189.31
2022-08-23T19:44:17.591Z,100190.66
2022-08-23T19:46:45.603Z,100194.28
2022-08-23T19:49:15.494Z,100188.72
2022-08-23T19:51:43.795Z,100191.22
2022-08-23T19:54:12.778Z,100193.28
2022-08-23T19:56:49.791Z,100187.16
2022-08-23T19:59:30.365Z,100200.94
2022-08-23T20:01:59.181Z,100198.84
2022-08-23T20:04:29.808Z,100208.31
2022-08-23T20:06:58.372Z,100217.00
2022-08-23T20:09:29.015Z,100227.44
2022-08-23T20:11:57.299Z,100225.75
2022-08-23T20:14:26.679Z,100240.41
2022-08-23T20:16:54.672Z,100245.06
2022-08-23T20:19:22.142Z,100252.31
2022-08-23T20:21:49.365Z,100242.53
2022-08-23T20:24:22.825Z,100247.41
2022-08-23T20:26:59.691Z,100242.38
2022-08-23T20:29:26.747Z,100245.00
2022-08-23T20:31:59.632Z,100241.28
2022-08-23T20:34:28.338Z,100236.59
2022-08-23T20:36:56.268Z,100241.47
2022-08-23T20:39:24.763Z,100238.16
2022-08-23T20:41:53.476Z,100242.88
2022-08-23T20:44:22.757Z,100240.22
2022-08-23T20:46:54.188Z,100244.13
2022-08-23T20:49:23.607Z,100237.09
2022-08-23T20:51:51.367Z,100238.94
2022-08-23T20:54:18.922Z,100237.25
2022-08-23T20:56:46.166Z,100236.94
2022-08-23T20:59:14.733Z,100231.09
2022-08-23T21:01:41.931Z,100234.03
2022-08-23T21:04:09.168Z,100244.13
2022-08-23T21:06:54.388Z,100244.81
2022-08-23T21:09:27.457Z,100240.94
2022-08-23T21:11:57.054Z,100240.06
2022-08-23T21:14:24.390Z,100242.47
2022-08-23T21:16:52.115Z,100245.22
2022-08-23T21:19:19.403Z,100243.78
2022-08-23T21:21:47.066Z,100251.63
2022-08-23T21:24:15.230Z,100255.53
2022-08-23T21:26:42.804Z,100256.75
2022-08-23T21:29:11.128Z,100271.09
2022-08-23T21:31:38.907Z,100262.41
2022-08-23T21:34:07.474Z,100275.56
2022-08-23T21:36:35.732Z,100279.13
2022-08-23T21:39:03.150Z,100292.91
2022-08-23T21:41:41.585Z,100305.72
2022-08-23T21:44:13.338Z,100312.69
2022-08-23T21:46:41.105Z,100302.97
2022-08-23T21:49:08.703Z,100305.00
2022-08-23T21:51:39.823Z,100299.31
2022-08-23T21:54:09.037Z,100291.97
2022-08-23T21:56:37.137Z,100283.66
2022-08-23T21:59:12.343Z,100281.19
2022-08-23T22:01:41.526Z,100276.75
2022-08-23T22:04:13.031Z,100278.53
2022-08-23T22:06:43.417Z,100274.25
2022-08-23T22:09:15.638Z,100266.84
2022-08-23T22:11:46.300Z,100262.38
2022-08-23T22:14:18.344Z,100263.63
2022-08-23T22:16:45.327Z,100262.88
2022-08-23T22:19:14.247Z,100276.91
2022-08-23T22:21:42.583Z,100276.16
2022-08-23T22:24:13.161Z,100273.72
2022-08-23T22:26:42.727Z,100277.16
2022-08-23T22:29:11.507Z,100281.00
2022-08-23T22:31:39.795Z,100286.31
2022-08-23T22:34:09.279Z,100284.47
2022-08-23T22:36:37.031Z,100280.44
2022-08-23T22:39:04.953Z,100274.13
2022-08-23T22:41:32.413Z,100266.81
2022-08-23T22:44:01.669Z,100271.50
2022-08-23T22:46:31.392Z,100265.59
2022-08-23T22:48:59.214Z,100264.19
2022-08-23T22:51:33.860Z,100261.94
2022-08-23T22:54:10.563Z,100267.94
2022-08-23T22:56:45.742Z,100266.19
2022-08-23T22:59:16.130Z,100266.19
2022-08-23T23:01:48.776Z,100272.47
2022-08-23T23:04:18.036Z,100267.94
2022-08-23T23:06:46.795Z,100275.69
2022-08-23T23:09:14.379Z,100267.75
2022-08-23T23:11:42.719Z,100279.63
2022-08-23T23:14:11.296Z,100283.63
2022-08-23T23:16:39.462Z,100275.28
2022-08-23T23:19:25.157Z,100275.69
2022-08-23T23:21:55.681Z,100285.25
2022-08-23T23:24:37.606Z,100292.81
2022-08-23T23:27:05.432Z,100299.66
2022-08-23T23:29:33.213Z,100297.59
2022-08-23T23:32:00.604Z,100300.44
2022-08-23T23:34:28.363Z,100294.59
2022-08-23T23:36:57.817Z,100295.22
2022-08-23T23:39:26.741Z,100302.28
2022-08-23T23:41:54.779Z,100296.97
2022-08-23T23:44:30.834Z,100298.91
2022-08-23T23:47:00.892Z,100297.16
2022-08-23T23:49:32.215Z,100297.03
2022-08-23T23:52:05.070Z,100281.00
2022-08-23T23:54:33.982Z,100281.56
2022-08-23T23:57:01.746Z,100293.13
2022-08-23T23:59:28.943Z,100289.09
